sensor_id;sensor_type;location;lat;lon;timestamp;temperature;humidity
11505;DHT22;5809;53.262;10.408;2023-06-10T00:01:40;13.90;99.90
11505;DHT22;5809;53.262;10.408;2023-06-10T00:04:07;13.80;99.90
11505;DHT22;5809;53.262;10.408;2023-06-10T00:06:35;13.80;99.90
11505;DHT22;5809;53.262;10.408;2023-06-10T00:09:03;13.80;99.90
11505;DHT22;5809;53.262;10.408;2023-06-10T00:11:31;13.70;99.90
11505;DHT22;5809;53.262;10.408;2023-06-10T00:13:58;13.70;99.90
11505;DHT22;5809;53.262;10.408;2023-06-10T00:16:25;13.60;99.90
11505;DHT22;5809;53.262;10.408;2023-06-10T00:18:53;13.60;99.90
11505;DHT22;5809;53.262;10.408;2023-06-10T00:21:21;13.60;99.90
11505;DHT22;5809;53.262;10.408;2023-06-10T00:23:51;13.50;99.90
11505;DHT22;5809;53.262;10.408;2023-06-10T00:26:18;13.50;99.90
11505;DHT22;5809;53.262;10.408;2023-06-10T00:28:45;13.60;99.90
11505;DHT22;5809;53.262;10.408;2023-06-10T00:31:12;13.50;99.90
11505;DHT22;5809;53.262;10.408;2023-06-10T00:33:39;13.50;99.90
11505;DHT22;5809;53.262;10.408;2023-06-10T00:36:06;13.50;99.90
11505;DHT22;5809;53.262;10.408;2023-06-10T00:38:33;13.50;99.90
11505;DHT22;5809;53.262;10.408;2023-06-10T00:41:02;13.60;99.90
11505;DHT22;5809;53.262;10.408;2023-06-10T00:43:29;13.70;99.90
11505;DHT22;5809;53.262;10.408;2023-06-10T00:45:56;13.70;99.90
11505;DHT22;5809;53.262;10.408;2023-06-10T00:48:23;13.70;99.90
11505;DHT22;5809;53.262;10.408;2023-06-10T00:53:18;13.80;99.90
11505;DHT22;5809;53.262;10.408;2023-06-10T00:55:46;13.90;99.90
11505;DHT22;5809;53.262;10.408;2023-06-10T01:00:42;14.00;99.90
11505;DHT22;5809;53.262;10.408;2023-06-10T01:03:10;14.10;99.90
11505;DHT22;5809;53.262;10.408;2023-06-10T01:05:37;14.10;99.90
11505;DHT22;5809;53.262;10.408;2023-06-10T01:08:09;14.10;99.90
11505;DHT22;5809;53.262;10.408;2023-06-10T01:10:43;14.10;99.90
11505;DHT22;5809;53.262;10.408;2023-06-10T01:13:15;14.10;99.90
11505;DHT22;5809;53.262;10.408;2023-06-10T01:15:44;14.10;99.90
11505;DHT22;5809;53.262;10.408;2023-06-10T01:18:11;14.10;99.90
11505;DHT22;5809;53.262;10.408;2023-06-10T01:20:41;14.10;99.90
11505;DHT22;5809;53.262;10.408;2023-06-10T01:23:10;14.00;99.90
11505;DHT22;5809;53.262;10.408;2023-06-10T01:25:39;13.90;99.90
11505;DHT22;5809;53.262;10.408;2023-06-10T01:28:12;13.90;99.90
11505;DHT22;5809;53.262;10.408;2023-06-10T01:30:46;14.00;99.90
11505;DHT22;5809;53.262;10.408;2023-06-10T01:33:17;14.10;99.90
11505;DHT22;5809;53.262;10.408;2023-06-10T01:35:46;14.00;99.90
11505;DHT22;5809;53.262;10.408;2023-06-10T01:38:16;14.00;99.90
11505;DHT22;5809;53.262;10.408;2023-06-10T01:40:46;13.90;99.90
11505;DHT22;5809;53.262;10.408;2023-06-10T01:43:14;13.90;99.90
11505;DHT22;5809;53.262;10.408;2023-06-10T01:45:41;13.70;99.90
11505;DHT22;5809;53.262;10.408;2023-06-10T01:48:08;13.70;99.90
11505;DHT22;5809;53.262;10.408;2023-06-10T01:50:35;13.80;99.90
11505;DHT22;5809;53.262;10.408;2023-06-10T01:53:01;13.60;99.90
11505;DHT22;5809;53.262;10.408;2023-06-10T01:55:30;13.60;99.90
11505;DHT22;5809;53.262;10.408;2023-06-10T01:57:57;13.60;99.90
11505;DHT22;5809;53.262;10.408;2023-06-10T02:00:24;13.60;99.90
11505;DHT22;5809;53.262;10.408;2023-06-10T02:02:50;13.50;99.90
11505;DHT22;5809;53.262;10.408;2023-06-10T02:05:18;13.60;99.90
11505;DHT22;5809;53.262;10.408;2023-06-10T02:07:45;13.60;99.90
11505;DHT22;5809;53.262;10.408;2023-06-10T02:10:12;13.50;99.90
11505;DHT22;5809;53.262;10.408;2023-06-10T02:12:40;13.50;99.90
11505;DHT22;5809;53.262;10.408;2023-06-10T02:15:07;13.50;99.90
11505;DHT22;5809;53.262;10.408;2023-06-10T02:17:34;13.50;99.90
11505;DHT22;5809;53.262;10.408;2023-06-10T02:20:01;13.50;99.90
11505;DHT22;5809;53.262;10.408;2023-06-10T02:22:32;13.50;99.90
11505;DHT22;5809;53.262;10.408;2023-06-10T02:24:59;13.50;99.90
11505;DHT22;5809;53.262;10.408;2023-06-10T02:27:26;13.50;99.90
11505;DHT22;5809;53.262;10.408;2023-06-10T02:29:55;13.60;99.90
11505;DHT22;5809;53.262;10.408;2023-06-10T02:32:22;13.60;99.90
11505;DHT22;5809;53.262;10.408;2023-06-10T02:34:49;13.70;99.90
11505;DHT22;5809;53.262;10.408;2023-06-10T02:37:16;13.70;99.90
11505;DHT22;5809;53.262;10.408;2023-06-10T02:39:43;13.70;99.90
11505;DHT22;5809;53.262;10.408;2023-06-10T02:42:11;13.70;99.90
11505;DHT22;5809;53.262;10.408;2023-06-10T02:44:38;13.60;99.90
11505;DHT22;5809;53.262;10.408;2023-06-10T02:47:07;13.60;99.90
11505;DHT22;5809;53.262;10.408;2023-06-10T02:49:33;13.60;99.90
11505;DHT22;5809;53.262;10.408;2023-06-10T02:52:01;13.50;99.90
11505;DHT22;5809;53.262;10.408;2023-06-10T02:54:28;13.50;99.90
11505;DHT22;5809;53.262;10.408;2023-06-10T02:56:55;13.50;99.90
11505;DHT22;5809;53.262;10.408;2023-06-10T02:59:22;13.50;99.90
11505;DHT22;5809;53.262;10.408;2023-06-10T03:01:49;13.50;99.90
11505;DHT22;5809;53.262;10.408;2023-06-10T03:04:17;13.40;99.90
11505;DHT22;5809;53.262;10.408;2023-06-10T03:06:44;13.40;99.90
11505;DHT22;5809;53.262;10.408;2023-06-10T03:09:12;13.40;99.90
11505;DHT22;5809;53.262;10.408;2023-06-10T03:11:40;13.50;99.90
11505;DHT22;5809;53.262;10.408;2023-06-10T03:14:07;13.50;99.90
11505;DHT22;5809;53.262;10.408;2023-06-10T03:16:34;13.50;99.90
11505;DHT22;5809;53.262;10.408;2023-06-10T03:19:00;13.50;99.90
11505;DHT22;5809;53.262;10.408;2023-06-10T03:21:29;13.50;99.90
11505;DHT22;5809;53.262;10.408;2023-06-10T03:23:56;13.60;99.90
11505;DHT22;5809;53.262;10.408;2023-06-10T03:26:23;13.60;99.90
11505;DHT22;5809;53.262;10.408;2023-06-10T03:28:50;13.60;99.90
11505;DHT22;5809;53.262;10.408;2023-06-10T03:31:16;13.50;99.90
11505;DHT22;5809;53.262;10.408;2023-06-10T03:33:43;13.50;99.90
11505;DHT22;5809;53.262;10.408;2023-06-10T03:36:10;13.50;99.90
11505;DHT22;5809;53.262;10.408;2023-06-10T03:38:39;13.50;99.90
11505;DHT22;5809;53.262;10.408;2023-06-10T03:41:05;13.50;99.90
11505;DHT22;5809;53.262;10.408;2023-06-10T03:43:32;13.60;99.90
11505;DHT22;5809;53.262;10.408;2023-06-10T03:45:59;13.60;99.90
11505;DHT22;5809;53.262;10.408;2023-06-10T03:48:27;13.60;99.90
11505;DHT22;5809;53.262;10.408;2023-06-10T03:50:54;14.10;99.90
11505;DHT22;5809;53.262;10.408;2023-06-10T03:53:20;13.60;99.90
11505;DHT22;5809;53.262;10.408;2023-06-10T03:55:49;13.70;99.90
11505;DHT22;5809;53.262;10.408;2023-06-10T03:58:16;13.70;99.90
11505;DHT22;5809;53.262;10.408;2023-06-10T04:00:43;13.60;99.90
11505;DHT22;5809;53.262;10.408;2023-06-10T04:03:11;13.70;99.90
11505;DHT22;5809;53.262;10.408;2023-06-10T04:05:40;13.70;99.90
11505;DHT22;5809;53.262;10.408;2023-06-10T04:08:07;13.70;99.90
11505;DHT22;5809;53.262;10.408;2023-06-10T04:10:34;13.80;99.90
11505;DHT22;5809;53.262;10.408;2023-06-10T04:13:03;13.90;91.10
11505;DHT22;5809;53.262;10.408;2023-06-10T04:15:30;13.90;71.60
11505;DHT22;5809;53.262;10.408;2023-06-10T04:17:59;13.90;14.50
11505;DHT22;5809;53.262;10.408;2023-06-10T04:20:27;14.00;28.50
11505;DHT22;5809;53.262;10.408;2023-06-10T04:22:54;14.00;1.20
11505;DHT22;5809;53.262;10.408;2023-06-10T04:25:21;14.00;1.00
11505;DHT22;5809;53.262;10.408;2023-06-10T04:27:48;13.90;24.20
11505;DHT22;5809;53.262;10.408;2023-06-10T04:30:17;13.80;61.60
11505;DHT22;5809;53.262;10.408;2023-06-10T04:32:44;13.90;75.90
11505;DHT22;5809;53.262;10.408;2023-06-10T04:35:12;14.00;63.00
11505;DHT22;5809;53.262;10.408;2023-06-10T04:37:39;14.10;58.00
11505;DHT22;5809;53.262;10.408;2023-06-10T04:40:07;14.10;1.00
11505;DHT22;5809;53.262;10.408;2023-06-10T04:42:35;14.10;1.00
11505;DHT22;5809;53.262;10.408;2023-06-10T04:45:02;14.20;1.00
11505;DHT22;5809;53.262;10.408;2023-06-10T04:47:30;14.30;1.00
11505;DHT22;5809;53.262;10.408;2023-06-10T04:49:59;14.30;1.00
11505;DHT22;5809;53.262;10.408;2023-06-10T04:52:25;14.30;1.00
11505;DHT22;5809;53.262;10.408;2023-06-10T04:54:53;14.40;1.00
11505;DHT22;5809;53.262;10.408;2023-06-10T04:57:20;14.40;1.00
11505;DHT22;5809;53.262;10.408;2023-06-10T04:59:47;14.50;1.00
11505;DHT22;5809;53.262;10.408;2023-06-10T05:02:14;14.50;1.00
11505;DHT22;5809;53.262;10.408;2023-06-10T05:04:43;14.60;1.00
11505;DHT22;5809;53.262;10.408;2023-06-10T05:07:10;14.60;1.00
11505;DHT22;5809;53.262;10.408;2023-06-10T05:09:36;14.60;1.00
11505;DHT22;5809;53.262;10.408;2023-06-10T05:12:04;14.70;1.00
11505;DHT22;5809;53.262;10.408;2023-06-10T05:14:32;13.00;1.00
11505;DHT22;5809;53.262;10.408;2023-06-10T05:16:59;14.90;1.00
11505;DHT22;5809;53.262;10.408;2023-06-10T05:19:26;15.00;1.00
11505;DHT22;5809;53.262;10.408;2023-06-10T05:21:54;15.20;1.00
11505;DHT22;5809;53.262;10.408;2023-06-10T05:24:21;15.40;99.90
11505;DHT22;5809;53.262;10.408;2023-06-10T05:26:48;15.50;7.60
11505;DHT22;5809;53.262;10.408;2023-06-10T05:29:15;15.50;1.00
11505;DHT22;5809;53.262;10.408;2023-06-10T05:31:42;15.50;1.00
11505;DHT22;5809;53.262;10.408;2023-06-10T05:34:09;15.30;4.80
11505;DHT22;5809;53.262;10.408;2023-06-10T05:36:36;15.10;99.90
11505;DHT22;5809;53.262;10.408;2023-06-10T05:39:05;15.10;99.90
11505;DHT22;5809;53.262;10.408;2023-06-10T05:41:32;15.20;99.90
11505;DHT22;5809;53.262;10.408;2023-06-10T05:43:59;15.40;99.90
11505;DHT22;5809;53.262;10.408;2023-06-10T05:46:25;15.60;1.00
11505;DHT22;5809;53.262;10.408;2023-06-10T05:48:52;15.90;99.90
11505;DHT22;5809;53.262;10.408;2023-06-10T05:51:19;16.10;99.90
11505;DHT22;5809;53.262;10.408;2023-06-10T05:53:46;16.30;1.00
11505;DHT22;5809;53.262;10.408;2023-06-10T05:56:15;16.20;1.00
11505;DHT22;5809;53.262;10.408;2023-06-10T05:58:42;16.40;82.10
11505;DHT22;5809;53.262;10.408;2023-06-10T06:01:09;16.80;99.90
11505;DHT22;5809;53.262;10.408;2023-06-10T06:03:35;17.00;99.90
11505;DHT22;5809;53.262;10.408;2023-06-10T06:06:03;17.00;99.90
11505;DHT22;5809;53.262;10.408;2023-06-10T06:08:30;17.40;1.00
11505;DHT22;5809;53.262;10.408;2023-06-10T06:10:57;17.60;1.00
11505;DHT22;5809;53.262;10.408;2023-06-10T06:13:25;17.90;99.90
11505;DHT22;5809;53.262;10.408;2023-06-10T06:15:52;18.10;99.90
11505;DHT22;5809;53.262;10.408;2023-06-10T06:18:19;18.20;49.60
11505;DHT22;5809;53.262;10.408;2023-06-10T06:20:46;18.40;1.00
11505;DHT22;5809;53.262;10.408;2023-06-10T06:23:13;18.70;1.00
11505;DHT22;5809;53.262;10.408;2023-06-10T06:25:40;19.00;99.90
11505;DHT22;5809;53.262;10.408;2023-06-10T06:28:07;19.00;99.90
11505;DHT22;5809;53.262;10.408;2023-06-10T06:30:36;19.20;99.90
11505;DHT22;5809;53.262;10.408;2023-06-10T06:33:03;19.50;99.90
11505;DHT22;5809;53.262;10.408;2023-06-10T06:35:31;19.80;1.00
11505;DHT22;5809;53.262;10.408;2023-06-10T06:37:58;20.10;1.00
11505;DHT22;5809;53.262;10.408;2023-06-10T06:40:25;20.20;1.00
11505;DHT22;5809;53.262;10.408;2023-06-10T06:42:52;20.40;1.00
11505;DHT22;5809;53.262;10.408;2023-06-10T06:45:19;20.50;99.90
11505;DHT22;5809;53.262;10.408;2023-06-10T06:47:47;20.40;99.90
11505;DHT22;5809;53.262;10.408;2023-06-10T06:50:15;20.50;1.00
11505;DHT22;5809;53.262;10.408;2023-06-10T06:52:42;20.70;99.90
11505;DHT22;5809;53.262;10.408;2023-06-10T06:55:09;20.80;99.90
11505;DHT22;5809;53.262;10.408;2023-06-10T06:57:35;21.00;99.90
11505;DHT22;5809;53.262;10.408;2023-06-10T07:00:04;21.20;73.40
11505;DHT22;5809;53.262;10.408;2023-06-10T07:02:31;21.00;99.90
11505;DHT22;5809;53.262;10.408;2023-06-10T07:05:00;21.10;99.90
11505;DHT22;5809;53.262;10.408;2023-06-10T07:07:27;21.30;42.90
11505;DHT22;5809;53.262;10.408;2023-06-10T07:18:14;20.90;99.10
11505;DHT22;5809;53.262;10.408;2023-06-10T07:21:16;21.10;99.90
11505;DHT22;5809;53.262;10.408;2023-06-10T07:23:43;21.60;1.00
11505;DHT22;5809;53.262;10.408;2023-06-10T07:26:10;21.40;1.00
11505;DHT22;5809;53.262;10.408;2023-06-10T07:28:39;21.90;1.00
11505;DHT22;5809;53.262;10.408;2023-06-10T07:31:07;22.40;1.00
11505;DHT22;5809;53.262;10.408;2023-06-10T07:33:34;22.90;1.00
11505;DHT22;5809;53.262;10.408;2023-06-10T07:36:02;23.30;99.90
11505;DHT22;5809;53.262;10.408;2023-06-10T07:38:31;23.80;1.00
11505;DHT22;5809;53.262;10.408;2023-06-10T07:40:57;24.10;1.00
11505;DHT22;5809;53.262;10.408;2023-06-10T07:43:24;24.20;1.00
11505;DHT22;5809;53.262;10.408;2023-06-10T07:45:51;23.70;35.70
11505;DHT22;5809;53.262;10.408;2023-06-10T07:48:19;23.20;99.90
11505;DHT22;5809;53.262;10.408;2023-06-10T07:50:46;23.10;99.90
11505;DHT22;5809;53.262;10.408;2023-06-10T07:53:12;23.60;99.90
11505;DHT22;5809;53.262;10.408;2023-06-10T07:55:41;23.70;99.90
11505;DHT22;5809;53.262;10.408;2023-06-10T07:58:08;23.90;1.00
11505;DHT22;5809;53.262;10.408;2023-06-10T08:00:35;24.30;1.00
11505;DHT22;5809;53.262;10.408;2023-06-10T08:03:02;24.60;1.00
11505;DHT22;5809;53.262;10.408;2023-06-10T08:05:29;24.90;1.00
11505;DHT22;5809;53.262;10.408;2023-06-10T08:07:56;24.50;1.00
11505;DHT22;5809;53.262;10.408;2023-06-10T08:10:23;23.80;34.40
11505;DHT22;5809;53.262;10.408;2023-06-10T08:12:52;24.20;1.00
11505;DHT22;5809;53.262;10.408;2023-06-10T08:15:19;24.70;1.00
11505;DHT22;5809;53.262;10.408;2023-06-10T08:17:46;25.30;1.00
11505;DHT22;5809;53.262;10.408;2023-06-10T08:20:13;25.70;1.00
11505;DHT22;5809;53.262;10.408;2023-06-10T08:22:40;26.20;99.90
11505;DHT22;5809;53.262;10.408;2023-06-10T08:25:08;26.10;99.90
11505;DHT22;5809;53.262;10.408;2023-06-10T08:27:35;26.60;99.90
11505;DHT22;5809;53.262;10.408;2023-06-10T08:30:04;26.70;99.90
11505;DHT22;5809;53.262;10.408;2023-06-10T08:32:31;26.70;99.90
11505;DHT22;5809;53.262;10.408;2023-06-10T08:34:58;26.70;99.90
11505;DHT22;5809;53.262;10.408;2023-06-10T08:37:25;27.00;99.90
11505;DHT22;5809;53.262;10.408;2023-06-10T08:39:52;26.90;99.90
11505;DHT22;5809;53.262;10.408;2023-06-10T08:42:22;27.10;99.90
11505;DHT22;5809;53.262;10.408;2023-06-10T08:44:53;27.40;11.40
11505;DHT22;5809;53.262;10.408;2023-06-10T08:47:23;27.60;16.90
11505;DHT22;5809;53.262;10.408;2023-06-10T08:49:51;27.80;2.50
11505;DHT22;5809;53.262;10.408;2023-06-10T08:52:20;28.00;1.00
11505;DHT22;5809;53.262;10.408;2023-06-10T08:54:49;28.30;1.00
11505;DHT22;5809;53.262;10.408;2023-06-10T08:57:18;28.60;1.00
11505;DHT22;5809;53.262;10.408;2023-06-10T08:59:48;28.80;1.00
11505;DHT22;5809;53.262;10.408;2023-06-10T09:02:15;29.00;1.00
11505;DHT22;5809;53.262;10.408;2023-06-10T09:04:46;29.00;1.00
11505;DHT22;5809;53.262;10.408;2023-06-10T09:07:15;28.80;1.00
11505;DHT22;5809;53.262;10.408;2023-06-10T09:09:43;28.70;1.00
11505;DHT22;5809;53.262;10.408;2023-06-10T09:12:11;29.00;1.00
11505;DHT22;5809;53.262;10.408;2023-06-10T09:14:38;29.00;1.00
11505;DHT22;5809;53.262;10.408;2023-06-10T09:17:06;26.50;1.00
11505;DHT22;5809;53.262;10.408;2023-06-10T09:19:33;29.00;1.00
11505;DHT22;5809;53.262;10.408;2023-06-10T09:22:01;29.20;1.00
11505;DHT22;5809;53.262;10.408;2023-06-10T09:24:29;29.70;1.00
11505;DHT22;5809;53.262;10.408;2023-06-10T09:27:03;29.70;1.00
11505;DHT22;5809;53.262;10.408;2023-06-10T09:29:30;28.90;1.00
11505;DHT22;5809;53.262;10.408;2023-06-10T09:31:57;29.50;1.00
11505;DHT22;5809;53.262;10.408;2023-06-10T09:34:25;29.90;1.00
11505;DHT22;5809;53.262;10.408;2023-06-10T09:36:53;29.00;1.00
11505;DHT22;5809;53.262;10.408;2023-06-10T09:39:22;29.10;1.00
11505;DHT22;5809;53.262;10.408;2023-06-10T09:41:49;29.20;1.00
11505;DHT22;5809;53.262;10.408;2023-06-10T09:44:18;29.70;1.00
11505;DHT22;5809;53.262;10.408;2023-06-10T09:46:47;30.00;1.00
11505;DHT22;5809;53.262;10.408;2023-06-10T09:49:14;30.50;99.90
11505;DHT22;5809;53.262;10.408;2023-06-10T09:51:49;30.90;99.90
11505;DHT22;5809;53.262;10.408;2023-06-10T09:54:17;31.10;99.90
11505;DHT22;5809;53.262;10.408;2023-06-10T09:56:48;31.20;99.90
11505;DHT22;5809;53.262;10.408;2023-06-10T09:59:15;30.20;99.90
11505;DHT22;5809;53.262;10.408;2023-06-10T10:01:43;31.00;99.90
11505;DHT22;5809;53.262;10.408;2023-06-10T10:04:09;31.20;99.90
11505;DHT22;5809;53.262;10.408;2023-06-10T10:06:36;31.50;99.90
11505;DHT22;5809;53.262;10.408;2023-06-10T10:09:04;31.50;99.90
11505;DHT22;5809;53.262;10.408;2023-06-10T10:11:32;31.80;99.90
11505;DHT22;5809;53.262;10.408;2023-06-10T10:14:04;31.80;99.90
11505;DHT22;5809;53.262;10.408;2023-06-10T10:16:36;31.40;99.90
11505;DHT22;5809;53.262;10.408;2023-06-10T10:19:07;31.60;99.90
11505;DHT22;5809;53.262;10.408;2023-06-10T10:21:42;32.30;99.90
11505;DHT22;5809;53.262;10.408;2023-06-10T10:24:14;32.60;99.90
11505;DHT22;5809;53.262;10.408;2023-06-10T10:26:43;33.10;99.90
11505;DHT22;5809;53.262;10.408;2023-06-10T10:29:19;32.00;99.90
11505;DHT22;5809;53.262;10.408;2023-06-10T10:31:50;31.80;99.90
11505;DHT22;5809;53.262;10.408;2023-06-10T10:34:25;32.00;99.90
11505;DHT22;5809;53.262;10.408;2023-06-10T10:36:55;32.10;99.90
11505;DHT22;5809;53.262;10.408;2023-06-10T10:39:23;32.50;99.90
11505;DHT22;5809;53.262;10.408;2023-06-10T10:41:52;32.40;99.90
11505;DHT22;5809;53.262;10.408;2023-06-10T10:44:21;31.50;99.90
11505;DHT22;5809;53.262;10.408;2023-06-10T10:46:49;31.70;99.90
11505;DHT22;5809;53.262;10.408;2023-06-10T10:49:18;32.40;99.90
11505;DHT22;5809;53.262;10.408;2023-06-10T10:51:55;32.90;99.90
11505;DHT22;5809;53.262;10.408;2023-06-10T10:54:29;33.60;99.90
11505;DHT22;5809;53.262;10.408;2023-06-10T10:57:13;33.70;99.90
11505;DHT22;5809;53.262;10.408;2023-06-10T11:00:00;33.50;99.90
11505;DHT22;5809;53.262;10.408;2023-06-10T11:02:37;33.80;99.90
11505;DHT22;5809;53.262;10.408;2023-06-10T11:05:09;33.70;99.90
11505;DHT22;5809;53.262;10.408;2023-06-10T11:07:37;33.60;99.90
11505;DHT22;5809;53.262;10.408;2023-06-10T11:10:07;32.70;99.90
11505;DHT22;5809;53.262;10.408;2023-06-10T11:12:52;33.30;99.90
11505;DHT22;5809;53.262;10.408;2023-06-10T11:15:22;34.30;99.90
11505;DHT22;5809;53.262;10.408;2023-06-10T11:18:21;34.20;99.90
11505;DHT22;5809;53.262;10.408;2023-06-10T11:20:56;34.10;82.50
11505;DHT22;5809;53.262;10.408;2023-06-10T11:23:38;33.70;99.90
11505;DHT22;5809;53.262;10.408;2023-06-10T11:26:12;33.70;86.00
11505;DHT22;5809;53.262;10.408;2023-06-10T11:28:40;33.70;91.40
11505;DHT22;5809;53.262;10.408;2023-06-10T11:31:09;34.70;82.70
11505;DHT22;5809;53.262;10.408;2023-06-10T11:33:46;35.10;25.10
11505;DHT22;5809;53.262;10.408;2023-06-10T11:36:13;35.50;1.10
11505;DHT22;5809;53.262;10.408;2023-06-10T11:38:40;34.40;25.50
11505;DHT22;5809;53.262;10.408;2023-06-10T11:41:07;35.20;23.00
11505;DHT22;5809;53.262;10.408;2023-06-10T11:43:34;35.40;4.80
11505;DHT22;5809;53.262;10.408;2023-06-10T11:46:01;34.70;18.10
11505;DHT22;5809;53.262;10.408;2023-06-10T11:48:30;35.40;2.30
11505;DHT22;5809;53.262;10.408;2023-06-10T11:50:57;35.90;1.00
11505;DHT22;5809;53.262;10.408;2023-06-10T11:53:23;34.40;1.00
11505;DHT22;5809;53.262;10.408;2023-06-10T11:55:51;35.10;1.00
11505;DHT22;5809;53.262;10.408;2023-06-10T11:58:21;35.80;1.00
11505;DHT22;5809;53.262;10.408;2023-06-10T12:00:49;35.70;1.00
11505;DHT22;5809;53.262;10.408;2023-06-10T12:03:17;34.70;1.00
11505;DHT22;5809;53.262;10.408;2023-06-10T12:05:59;34.70;1.00
11505;DHT22;5809;53.262;10.408;2023-06-10T12:08:26;34.80;1.00
11505;DHT22;5809;53.262;10.408;2023-06-10T12:10:54;35.30;1.00
11505;DHT22;5809;53.262;10.408;2023-06-10T12:13:22;35.70;1.00
11505;DHT22;5809;53.262;10.408;2023-06-10T12:15:49;35.20;1.00
11505;DHT22;5809;53.262;10.408;2023-06-10T12:18:16;34.10;1.00
11505;DHT22;5809;53.262;10.408;2023-06-10T12:20:44;34.30;2.70
11505;DHT22;5809;53.262;10.408;2023-06-10T12:23:13;34.40;1.00
11505;DHT22;5809;53.262;10.408;2023-06-10T12:25:49;33.70;1.00
11505;DHT22;5809;53.262;10.408;2023-06-10T12:28:20;33.00;1.00
11505;DHT22;5809;53.262;10.408;2023-06-10T12:30:48;34.10;1.00
11505;DHT22;5809;53.262;10.408;2023-06-10T12:33:18;35.20;1.00
11505;DHT22;5809;53.262;10.408;2023-06-10T12:35:49;36.00;1.00
11505;DHT22;5809;53.262;10.408;2023-06-10T12:38:22;34.90;1.00
11505;DHT22;5809;53.262;10.408;2023-06-10T12:40:50;34.50;1.00
11505;DHT22;5809;53.262;10.408;2023-06-10T12:43:20;33.80;1.00
11505;DHT22;5809;53.262;10.408;2023-06-10T12:45:47;34.90;1.00
11505;DHT22;5809;53.262;10.408;2023-06-10T12:48:19;35.60;1.00
11505;DHT22;5809;53.262;10.408;2023-06-10T12:50:50;36.60;1.00
11505;DHT22;5809;53.262;10.408;2023-06-10T12:53:18;36.70;1.00
11505;DHT22;5809;53.262;10.408;2023-06-10T12:55:47;37.00;1.00
11505;DHT22;5809;53.262;10.408;2023-06-10T12:58:14;37.60;1.00
11505;DHT22;5809;53.262;10.408;2023-06-10T13:00:42;38.00;1.00
11505;DHT22;5809;53.262;10.408;2023-06-10T13:03:09;38.40;1.00
11505;DHT22;5809;53.262;10.408;2023-06-10T13:05:37;38.10;1.00
11505;DHT22;5809;53.262;10.408;2023-06-10T13:08:05;37.80;1.00
11505;DHT22;5809;53.262;10.408;2023-06-10T13:10:33;38.00;1.00
11505;DHT22;5809;53.262;10.408;2023-06-10T13:13:02;38.20;1.00
11505;DHT22;5809;53.262;10.408;2023-06-10T13:15:31;38.20;1.00
11505;DHT22;5809;53.262;10.408;2023-06-10T13:18:01;38.10;1.00
11505;DHT22;5809;53.262;10.408;2023-06-10T13:20:29;38.20;1.00
11505;DHT22;5809;53.262;10.408;2023-06-10T13:22:56;38.00;1.00
11505;DHT22;5809;53.262;10.408;2023-06-10T13:25:23;37.90;1.00
11505;DHT22;5809;53.262;10.408;2023-06-10T13:27:50;37.60;1.00
11505;DHT22;5809;53.262;10.408;2023-06-10T13:30:18;37.60;1.00
11505;DHT22;5809;53.262;10.408;2023-06-10T13:32:45;37.90;1.00
11505;DHT22;5809;53.262;10.408;2023-06-10T13:35:12;37.80;1.00
11505;DHT22;5809;53.262;10.408;2023-06-10T13:37:39;36.80;1.00
11505;DHT22;5809;53.262;10.408;2023-06-10T13:40:07;37.10;1.00
11505;DHT22;5809;53.262;10.408;2023-06-10T13:42:35;37.70;1.00
11505;DHT22;5809;53.262;10.408;2023-06-10T13:45:02;37.00;1.00
11505;DHT22;5809;53.262;10.408;2023-06-10T13:47:31;36.00;1.00
11505;DHT22;5809;53.262;10.408;2023-06-10T13:49:58;35.80;1.00
11505;DHT22;5809;53.262;10.408;2023-06-10T13:52:25;36.80;1.00
11505;DHT22;5809;53.262;10.408;2023-06-10T13:54:52;37.50;1.00
11505;DHT22;5809;53.262;10.408;2023-06-10T13:57:19;37.60;1.00
11505;DHT22;5809;53.262;10.408;2023-06-10T13:59:45;37.90;1.00
11505;DHT22;5809;53.262;10.408;2023-06-10T14:02:12;38.40;1.00
11505;DHT22;5809;53.262;10.408;2023-06-10T14:04:41;38.60;1.00
11505;DHT22;5809;53.262;10.408;2023-06-10T14:07:08;38.70;1.00
11505;DHT22;5809;53.262;10.408;2023-06-10T14:09:34;38.40;1.00
11505;DHT22;5809;53.262;10.408;2023-06-10T14:12:01;38.20;1.00
11505;DHT22;5809;53.262;10.408;2023-06-10T14:14:30;37.50;1.00
11505;DHT22;5809;53.262;10.408;2023-06-10T14:16:58;36.10;1.00
11505;DHT22;5809;53.262;10.408;2023-06-10T14:19:25;36.40;1.00
11505;DHT22;5809;53.262;10.408;2023-06-10T14:21:53;36.30;1.00
11505;DHT22;5809;53.262;10.408;2023-06-10T14:24:21;35.00;1.00
11505;DHT22;5809;53.262;10.408;2023-06-10T14:26:47;33.10;1.00
11505;DHT22;5809;53.262;10.408;2023-06-10T14:29:14;32.10;1.00
11505;DHT22;5809;53.262;10.408;2023-06-10T14:31:42;33.00;1.00
11505;DHT22;5809;53.262;10.408;2023-06-10T14:34:09;34.00;1.00
11505;DHT22;5809;53.262;10.408;2023-06-10T14:36:36;34.50;1.00
11505;DHT22;5809;53.262;10.408;2023-06-10T14:39:05;34.60;1.00
11505;DHT22;5809;53.262;10.408;2023-06-10T14:41:31;34.50;1.00
11505;DHT22;5809;53.262;10.408;2023-06-10T14:43:58;32.80;1.00
11505;DHT22;5809;53.262;10.408;2023-06-10T14:46:25;31.70;1.00
11505;DHT22;5809;53.262;10.408;2023-06-10T14:48:52;31.50;1.00
11505;DHT22;5809;53.262;10.408;2023-06-10T14:51:19;31.80;1.00
11505;DHT22;5809;53.262;10.408;2023-06-10T14:53:46;31.90;1.00
11505;DHT22;5809;53.262;10.408;2023-06-10T14:56:14;31.70;1.00
11505;DHT22;5809;53.262;10.408;2023-06-10T14:58:41;30.00;1.00
11505;DHT22;5809;53.262;10.408;2023-06-10T15:01:08;29.60;1.00
11505;DHT22;5809;53.262;10.408;2023-06-10T15:03:35;29.80;9.60
11505;DHT22;5809;53.262;10.408;2023-06-10T15:06:03;29.80;1.00
11505;DHT22;5809;53.262;10.408;2023-06-10T15:08:30;30.10;1.00
11505;DHT22;5809;53.262;10.408;2023-06-10T15:10:56;30.30;1.00
11505;DHT22;5809;53.262;10.408;2023-06-10T15:13:25;30.50;1.00
11505;DHT22;5809;53.262;10.408;2023-06-10T15:15:52;30.40;1.00
11505;DHT22;5809;53.262;10.408;2023-06-10T15:18:19;30.70;1.00
11505;DHT22;5809;53.262;10.408;2023-06-10T15:20:46;31.00;1.00
11505;DHT22;5809;53.262;10.408;2023-06-10T15:23:13;31.20;1.00
11505;DHT22;5809;53.262;10.408;2023-06-10T15:25:40;31.10;1.00
11505;DHT22;5809;53.262;10.408;2023-06-10T15:28:08;31.30;1.00
11505;DHT22;5809;53.262;10.408;2023-06-10T15:30:36;31.50;1.00
11505;DHT22;5809;53.262;10.408;2023-06-10T15:33:06;31.30;1.00
11505;DHT22;5809;53.262;10.408;2023-06-10T15:35:34;31.20;99.90
11505;DHT22;5809;53.262;10.408;2023-06-10T15:38:01;30.80;99.90
11505;DHT22;5809;53.262;10.408;2023-06-10T15:40:28;30.60;1.00
11505;DHT22;5809;53.262;10.408;2023-06-10T15:42:55;30.40;1.00
11505;DHT22;5809;53.262;10.408;2023-06-10T15:45:22;30.30;1.00
11505;DHT22;5809;53.262;10.408;2023-06-10T15:47:51;30.30;1.00
11505;DHT22;5809;53.262;10.408;2023-06-10T15:50:18;30.30;1.00
11505;DHT22;5809;53.262;10.408;2023-06-10T15:52:45;30.20;1.00
11505;DHT22;5809;53.262;10.408;2023-06-10T15:55:12;30.10;1.00
11505;DHT22;5809;53.262;10.408;2023-06-10T15:57:39;30.00;1.00